Pineville, MO (64856)

2:10 AM CST on February 28, 2017 (GMT -0600)
Brush Creek | | Change Station

Elev 1056 ft 36.51 °N, 94.34 °W | Updated 13 seconds ago

Overcast
Overcast
61.0 °F
Feels Like 61.0 °F
N
7.4
Wind Variable Wind from SE
Gusts 9.8 mph

Today
High -- | Low -- °F
--% Chance of Precip.
Yesterday
High -- | Low -- °F
Precip. -- in
Pressure 29.89 in
Visibility 10.0 miles
Clouds Overcast 1000 ft
Dew Point 57 °F
Humidity 86%
Rainfall 0.00 in
Snow Depth Not available.
6:49 AM 6:11 PM
Waxing Crescent, 4% visible
METAR KVBT 280755Z AUTO 18011G18KT 10SM OVC010 15/13 A2989 RMK AO1
Pressure 29.89 in
Visibility 10.0 miles
Clouds Overcast 1000 ft
Dew Point 57 °F
Humidity 86%
Rainfall 0.00 in
Snow Depth Not available.
6:49 AM 6:11 PM
Waxing Crescent, 4% visible
METAR KVBT 280755Z AUTO 18011G18KT 10SM OVC010 15/13 A2989 RMK AO1

Get Your Daily Forecast Email!

Thanks for signing up!

Be on the lookout for a verification email in your inbox.

You'll start receiving the daily forecast at 8 AM.

×

10-Day Weather Forecast

Almanac

Astronomy

Feb. 28, 2017 Rise Set
Actual Time
Civil Twilight
Nautical Twilight
Astronomical Twilight
Moon
Length of Visible Light
Length of Day
Tomorrow will be .
, % of the Moon is Illuminated

Today's Extremes

State Highs State Lows

Community

WunderPhotos

Upload Photos

1,962,540 photos uploaded!

WunderBlog® & News

Nearby

Air Quality

  Air Quality AQ Index Pollutant
Not available.

Snow Depth

Station Depth Elevation

Earthquake Activity

City Distance Mag. Time & Date
Minimum magnitude displayed is 2.5.

Coastal Water Temperatures

Place Temperature

Stations

Nearby Weather Stations

Station Location Temp. Windchill Dew Point Humidity Wind Precip. Elev Updated Type
                   

Watches & Warnings

There are currently no watches in effect.